Jourdanton, Texas
Current Conditions -  °F | °C
As of 8:15 AM on Monday 20 Oct 2014 (Local Time) from KPEZ Reporting Station
Haze Haze  
Wind Chill: 64°   Ceiling: Unl
Heat Index: 64°   Visibility: 3mi
Dew Point: 63°   Wind: 3mph
Humidity: 96%   Direction: 30°NNE
Pressure: 30.03"   Gusts: NA
Location:  28.92°N, 98.55°W
Report Text: KPEZ 201315Z AUTO 03003KT 3SM BR CLR 18/17 A3003 RMK AO2 T01770170
Loading
Personal Weather Stations






























Interactive Weather Map
Tropical Storm Tracking
New forecast layout! Learn more

10-Day Weather Forecast

Advertisements
Track Severe Weather on mobile